sensor_id;sensor_type;location;lat;lon;timestamp;pressure;altitude;pressure_sealevel;temperature;humidity
44453;BME280;30155;52.164;21.236;2023-03-18T00:04:49;101123.73;;;3.35;50.80
44453;BME280;30155;52.164;21.236;2023-03-18T00:09:43;101121.49;;;3.35;50.67
44453;BME280;30155;52.164;21.236;2023-03-18T00:14:37;101121.84;;;3.35;50.66
44453;BME280;30155;52.164;21.236;2023-03-18T00:19:30;101118.40;;;3.32;50.72
44453;BME280;30155;52.164;21.236;2023-03-18T00:24:24;101121.66;;;3.32;50.77
44453;BME280;30155;52.164;21.236;2023-03-18T00:29:18;101119.66;;;3.30;50.81
44453;BME280;30155;52.164;21.236;2023-03-18T00:34:11;101111.55;;;3.28;50.67
44453;BME280;30155;52.164;21.236;2023-03-18T00:39:06;101111.98;;;3.30;50.66
44453;BME280;30155;52.164;21.236;2023-03-18T00:44:00;101110.92;;;3.30;50.35
44453;BME280;30155;52.164;21.236;2023-03-18T00:48:55;101107.29;;;3.29;50.48
44453;BME280;30155;52.164;21.236;2023-03-18T00:53:53;101096.13;;;3.26;50.60
44453;BME280;30155;52.164;21.236;2023-03-18T00:58:49;101093.03;;;3.25;50.55
44453;BME280;30155;52.164;21.236;2023-03-18T01:03:44;101090.94;;;3.21;50.40
44453;BME280;30155;52.164;21.236;2023-03-18T01:08:39;101087.23;;;3.16;50.73
44453;BME280;30155;52.164;21.236;2023-03-18T01:13:34;101088.05;;;3.12;50.40
44453;BME280;30155;52.164;21.236;2023-03-18T01:18:28;101079.42;;;3.11;50.54
44453;BME280;30155;52.164;21.236;2023-03-18T01:23:23;101072.64;;;3.05;50.36
44453;BME280;30155;52.164;21.236;2023-03-18T01:28:16;101069.29;;;3.03;50.38
44453;BME280;30155;52.164;21.236;2023-03-18T01:33:10;101062.68;;;3.01;50.61
44453;BME280;30155;52.164;21.236;2023-03-18T01:38:04;101056.98;;;2.97;50.59
44453;BME280;30155;52.164;21.236;2023-03-18T01:43:13;101052.77;;;2.92;50.84
44453;BME280;30155;52.164;21.236;2023-03-18T01:48:16;101046.20;;;2.91;50.74
44453;BME280;30155;52.164;21.236;2023-03-18T01:53:14;101044.46;;;2.91;50.56
44453;BME280;30155;52.164;21.236;2023-03-18T01:58:25;101049.17;;;2.92;50.55
44453;BME280;30155;52.164;21.236;2023-03-18T02:03:20;101049.33;;;2.89;50.82
44453;BME280;30155;52.164;21.236;2023-03-18T02:08:39;101050.87;;;2.82;50.57
44453;BME280;30155;52.164;21.236;2023-03-18T02:14:04;101050.97;;;2.78;50.60
44453;BME280;30155;52.164;21.236;2023-03-18T02:19:14;101051.74;;;2.76;50.84
44453;BME280;30155;52.164;21.236;2023-03-18T02:24:42;101047.02;;;2.72;50.87
44453;BME280;30155;52.164;21.236;2023-03-18T02:29:41;101046.66;;;2.67;51.21
44453;BME280;30155;52.164;21.236;2023-03-18T02:35:02;101041.09;;;2.63;51.18
44453;BME280;30155;52.164;21.236;2023-03-18T02:40:13;101038.84;;;2.59;51.03
44453;BME280;30155;52.164;21.236;2023-03-18T02:45:22;101033.94;;;2.51;51.57
44453;BME280;30155;52.164;21.236;2023-03-18T02:50:37;101032.92;;;2.44;51.36
44453;BME280;30155;52.164;21.236;2023-03-18T02:55:33;101030.03;;;2.45;51.39
44453;BME280;30155;52.164;21.236;2023-03-18T03:00:26;101030.11;;;2.46;51.15
44453;BME280;30155;52.164;21.236;2023-03-18T03:05:21;101028.96;;;2.47;51.04
44453;BME280;30155;52.164;21.236;2023-03-18T03:10:15;101019.79;;;2.46;51.40
44453;BME280;30155;52.164;21.236;2023-03-18T03:15:08;101008.30;;;2.48;50.60
44453;BME280;30155;52.164;21.236;2023-03-18T03:20:08;101009.33;;;2.48;50.53
44453;BME280;30155;52.164;21.236;2023-03-18T03:25:02;101008.57;;;2.44;51.09
44453;BME280;30155;52.164;21.236;2023-03-18T03:29:57;101006.64;;;2.37;50.65
44453;BME280;30155;52.164;21.236;2023-03-18T03:34:50;101007.67;;;2.34;50.64
44453;BME280;30155;52.164;21.236;2023-03-18T03:39:43;101007.55;;;2.34;50.56
44453;BME280;30155;52.164;21.236;2023-03-18T03:44:36;101000.30;;;2.30;50.46
44453;BME280;30155;52.164;21.236;2023-03-18T03:49:29;101003.38;;;2.30;50.54
44453;BME280;30155;52.164;21.236;2023-03-18T03:54:22;101006.27;;;2.30;50.70
44453;BME280;30155;52.164;21.236;2023-03-18T03:59:17;101003.90;;;2.30;50.24
44453;BME280;30155;52.164;21.236;2023-03-18T04:04:26;101002.95;;;2.28;50.37
44453;BME280;30155;52.164;21.236;2023-03-18T04:09:19;101004.33;;;2.32;50.32
44453;BME280;30155;52.164;21.236;2023-03-18T04:14:12;101007.38;;;2.31;50.52
44453;BME280;30155;52.164;21.236;2023-03-18T04:19:07;101005.89;;;2.26;50.66
44453;BME280;30155;52.164;21.236;2023-03-18T04:24:00;101010.66;;;2.29;50.35
44453;BME280;30155;52.164;21.236;2023-03-18T04:28:56;101014.85;;;2.27;50.55
44453;BME280;30155;52.164;21.236;2023-03-18T04:33:49;101016.65;;;2.28;50.49
44453;BME280;30155;52.164;21.236;2023-03-18T04:38:42;101014.64;;;2.29;50.42
44453;BME280;30155;52.164;21.236;2023-03-18T04:43:37;101018.83;;;2.27;50.14
44453;BME280;30155;52.164;21.236;2023-03-18T04:48:31;101017.33;;;2.25;50.60
44453;BME280;30155;52.164;21.236;2023-03-18T04:53:26;101020.52;;;2.24;50.21
44453;BME280;30155;52.164;21.236;2023-03-18T04:58:18;101020.64;;;2.30;50.20
44453;BME280;30155;52.164;21.236;2023-03-18T05:03:23;101021.40;;;2.34;50.50
44453;BME280;30155;52.164;21.236;2023-03-18T05:08:17;101024.89;;;2.36;50.72
44453;BME280;30155;52.164;21.236;2023-03-18T05:13:11;101024.77;;;2.36;50.69
44453;BME280;30155;52.164;21.236;2023-03-18T05:18:04;101022.63;;;2.38;50.83
44453;BME280;30155;52.164;21.236;2023-03-18T05:22:57;101023.16;;;2.41;51.04
44453;BME280;30155;52.164;21.236;2023-03-18T05:28:00;101025.35;;;2.50;50.71
44453;BME280;30155;52.164;21.236;2023-03-18T05:33:00;101022.84;;;2.57;50.66
44453;BME280;30155;52.164;21.236;2023-03-18T05:38:15;101021.56;;;2.62;50.67
44453;BME280;30155;52.164;21.236;2023-03-18T05:43:09;101018.76;;;2.68;50.49
44453;BME280;30155;52.164;21.236;2023-03-18T05:48:08;101016.77;;;2.75;50.51
44453;BME280;30155;52.164;21.236;2023-03-18T05:53:09;101007.59;;;2.80;50.18
44453;BME280;30155;52.164;21.236;2023-03-18T05:58:04;101009.21;;;2.88;50.33
44453;BME280;30155;52.164;21.236;2023-03-18T06:02:59;101011.59;;;2.94;50.44
44453;BME280;30155;52.164;21.236;2023-03-18T06:07:53;101010.14;;;3.02;49.96
44453;BME280;30155;52.164;21.236;2023-03-18T06:12:47;101007.36;;;3.15;49.75
44453;BME280;30155;52.164;21.236;2023-03-18T06:17:41;101005.44;;;3.28;49.44
44453;BME280;30155;52.164;21.236;2023-03-18T06:22:34;101002.23;;;3.52;49.32
44453;BME280;30155;52.164;21.236;2023-03-18T06:27:27;101003.90;;;3.72;49.04
44453;BME280;30155;52.164;21.236;2023-03-18T06:32:22;101012.46;;;3.94;48.62
44453;BME280;30155;52.164;21.236;2023-03-18T06:37:15;101005.23;;;4.14;48.43
44453;BME280;30155;52.164;21.236;2023-03-18T06:42:09;101002.66;;;4.55;47.45
44453;BME280;30155;52.164;21.236;2023-03-18T06:47:10;100999.30;;;4.83;47.07
44453;BME280;30155;52.164;21.236;2023-03-18T06:52:07;101006.50;;;4.99;46.17
44453;BME280;30155;52.164;21.236;2023-03-18T06:57:00;101012.77;;;5.08;46.02
44453;BME280;30155;52.164;21.236;2023-03-18T07:01:54;101003.45;;;5.43;45.72
44453;BME280;30155;52.164;21.236;2023-03-18T07:06:48;101003.20;;;5.71;45.10
44453;BME280;30155;52.164;21.236;2023-03-18T07:11:43;101003.58;;;5.92;44.79
44453;BME280;30155;52.164;21.236;2023-03-18T07:16:40;100994.54;;;5.95;44.67
44453;BME280;30155;52.164;21.236;2023-03-18T07:21:34;101000.67;;;6.01;44.64
44453;BME280;30155;52.164;21.236;2023-03-18T07:26:28;100996.73;;;6.10;44.34
44453;BME280;30155;52.164;21.236;2023-03-18T07:31:22;101004.35;;;6.24;43.55
44453;BME280;30155;52.164;21.236;2023-03-18T07:36:16;100987.91;;;7.12;42.61
44453;BME280;30155;52.164;21.236;2023-03-18T07:41:09;100996.23;;;7.78;41.71
44453;BME280;30155;52.164;21.236;2023-03-18T07:46:03;100998.44;;;7.82;42.20
44453;BME280;30155;52.164;21.236;2023-03-18T07:50:56;100998.14;;;8.89;41.89
44453;BME280;30155;52.164;21.236;2023-03-18T07:55:50;100992.32;;;11.47;39.47
44453;BME280;30155;52.164;21.236;2023-03-18T08:00:43;100983.23;;;14.00;37.35
44453;BME280;30155;52.164;21.236;2023-03-18T08:05:37;100984.92;;;14.45;36.07
44453;BME280;30155;52.164;21.236;2023-03-18T08:10:30;100979.83;;;16.20;34.39
44453;BME280;30155;52.164;21.236;2023-03-18T08:15:23;100980.23;;;15.85;33.47
44453;BME280;30155;52.164;21.236;2023-03-18T08:20:17;100969.10;;;16.50;33.12
44453;BME280;30155;52.164;21.236;2023-03-18T08:25:10;100972.20;;;17.58;30.74
44453;BME280;30155;52.164;21.236;2023-03-18T08:30:04;100972.66;;;16.83;31.40
44453;BME280;30155;52.164;21.236;2023-03-18T08:34:58;100968.15;;;17.40;31.33
44453;BME280;30155;52.164;21.236;2023-03-18T08:39:52;100959.69;;;18.06;30.26
44453;BME280;30155;52.164;21.236;2023-03-18T08:44:45;100960.33;;;18.24;29.86
44453;BME280;30155;52.164;21.236;2023-03-18T08:49:38;100964.82;;;16.06;30.65
44453;BME280;30155;52.164;21.236;2023-03-18T08:54:30;100966.39;;;15.35;31.04
44453;BME280;30155;52.164;21.236;2023-03-18T08:59:24;100964.19;;;14.86;30.98
44453;BME280;30155;52.164;21.236;2023-03-18T09:04:17;100955.73;;;15.16;31.16
44453;BME280;30155;52.164;21.236;2023-03-18T09:09:10;100947.48;;;15.01;30.90
44453;BME280;30155;52.164;21.236;2023-03-18T09:14:03;100942.44;;;14.23;31.07
44453;BME280;30155;52.164;21.236;2023-03-18T09:18:57;100937.27;;;13.77;31.57
44453;BME280;30155;52.164;21.236;2023-03-18T09:23:50;100937.71;;;13.95;31.84
44453;BME280;30155;52.164;21.236;2023-03-18T09:28:43;100936.08;;;14.07;30.25
44453;BME280;30155;52.164;21.236;2023-03-18T09:33:37;100931.98;;;14.23;30.64
44453;BME280;30155;52.164;21.236;2023-03-18T09:38:32;100924.30;;;15.32;29.34
44453;BME280;30155;52.164;21.236;2023-03-18T09:43:53;100916.64;;;16.46;29.24
44453;BME280;30155;52.164;21.236;2023-03-18T09:54:11;100921.00;;;15.91;29.48
44453;BME280;30155;52.164;21.236;2023-03-18T09:59:18;100914.25;;;16.67;28.68
44453;BME280;30155;52.164;21.236;2023-03-18T10:04:21;100905.91;;;18.59;26.72
44453;BME280;30155;52.164;21.236;2023-03-18T10:09:47;100905.08;;;19.93;26.61
44453;BME280;30155;52.164;21.236;2023-03-18T10:14:48;100897.10;;;21.07;26.72
44453;BME280;30155;52.164;21.236;2023-03-18T10:20:00;100898.94;;;21.33;24.66
44453;BME280;30155;52.164;21.236;2023-03-18T10:30:02;100891.67;;;20.74;24.24
44453;BME280;30155;52.164;21.236;2023-03-18T10:35:13;100883.80;;;20.72;24.71
44453;BME280;30155;52.164;21.236;2023-03-18T10:40:15;100884.05;;;20.85;24.47
44453;BME280;30155;52.164;21.236;2023-03-18T10:45:20;100869.30;;;20.34;24.44
44453;BME280;30155;52.164;21.236;2023-03-18T10:50:36;100868.88;;;20.28;24.67
44453;BME280;30155;52.164;21.236;2023-03-18T10:55:42;100866.10;;;19.91;24.68
44453;BME280;30155;52.164;21.236;2023-03-18T11:00:38;100864.45;;;20.36;25.27
44453;BME280;30155;52.164;21.236;2023-03-18T11:05:34;100863.36;;;20.95;24.73
44453;BME280;30155;52.164;21.236;2023-03-18T11:10:35;100856.27;;;21.27;24.21
44453;BME280;30155;52.164;21.236;2023-03-18T11:15:37;100849.48;;;21.16;24.04
44453;BME280;30155;52.164;21.236;2023-03-18T11:20:39;100847.53;;;21.65;24.15
44453;BME280;30155;52.164;21.236;2023-03-18T11:25:35;100841.41;;;21.95;23.24
44453;BME280;30155;52.164;21.236;2023-03-18T11:30:33;100840.25;;;21.93;23.78
44453;BME280;30155;52.164;21.236;2023-03-18T11:40:32;100825.88;;;21.95;23.62
44453;BME280;30155;52.164;21.236;2023-03-18T11:51:01;100816.10;;;21.79;23.69
44453;BME280;30155;52.164;21.236;2023-03-18T11:56:34;100812.13;;;21.29;23.34
44453;BME280;30155;52.164;21.236;2023-03-18T12:06:56;100809.54;;;19.48;23.92
44453;BME280;30155;52.164;21.236;2023-03-18T12:11:58;100815.56;;;18.82;25.24
44453;BME280;30155;52.164;21.236;2023-03-18T12:27:58;100805.17;;;17.42;26.03
44453;BME280;30155;52.164;21.236;2023-03-18T12:48:03;100802.86;;;16.85;26.62
44453;BME280;30155;52.164;21.236;2023-03-18T12:58:45;100793.26;;;16.54;27.10
44453;BME280;30155;52.164;21.236;2023-03-18T13:03:42;100780.45;;;16.57;26.76
44453;BME280;30155;52.164;21.236;2023-03-18T13:09:22;100786.71;;;16.37;26.88
44453;BME280;30155;52.164;21.236;2023-03-18T13:13:59;100782.09;;;16.19;27.51
44453;BME280;30155;52.164;21.236;2023-03-18T13:18:56;100772.56;;;16.31;27.86
44453;BME280;30155;52.164;21.236;2023-03-18T13:29:26;100768.27;;;16.20;27.63
44453;BME280;30155;52.164;21.236;2023-03-18T13:34:30;100762.41;;;16.02;27.55
44453;BME280;30155;52.164;21.236;2023-03-18T13:40:44;100755.75;;;16.06;27.78
44453;BME280;30155;52.164;21.236;2023-03-18T13:45:23;100749.96;;;16.08;27.45
44453;BME280;30155;52.164;21.236;2023-03-18T14:05:40;100739.52;;;15.47;28.05
44453;BME280;30155;52.164;21.236;2023-03-18T14:10:34;100732.43;;;15.11;28.32
44453;BME280;30155;52.164;21.236;2023-03-18T14:15:42;100728.44;;;14.86;28.63
44453;BME280;30155;52.164;21.236;2023-03-18T14:20:39;100727.05;;;14.74;28.94
44453;BME280;30155;52.164;21.236;2023-03-18T14:25:35;100724.92;;;14.52;28.70
44453;BME280;30155;52.164;21.236;2023-03-18T14:35:32;100725.29;;;13.86;29.40
44453;BME280;30155;52.164;21.236;2023-03-18T14:40:27;100722.27;;;13.69;29.64
44453;BME280;30155;52.164;21.236;2023-03-18T14:50:44;100714.71;;;13.58;30.57
44453;BME280;30155;52.164;21.236;2023-03-18T14:55:36;100714.15;;;13.48;30.45
44453;BME280;30155;52.164;21.236;2023-03-18T15:00:33;100705.91;;;13.38;30.47
44453;BME280;30155;52.164;21.236;2023-03-18T15:05:31;100712.13;;;13.29;30.55
44453;BME280;30155;52.164;21.236;2023-03-18T15:10:29;100707.36;;;13.22;30.84
44453;BME280;30155;52.164;21.236;2023-03-18T15:15:23;100706.96;;;13.15;31.01
44453;BME280;30155;52.164;21.236;2023-03-18T15:20:16;100710.56;;;13.05;31.36
44453;BME280;30155;52.164;21.236;2023-03-18T15:25:16;100705.81;;;12.98;31.60
44453;BME280;30155;52.164;21.236;2023-03-18T15:30:29;100700.16;;;12.85;31.91
44453;BME280;30155;52.164;21.236;2023-03-18T15:35:24;100700.58;;;12.73;31.87
44453;BME280;30155;52.164;21.236;2023-03-18T15:45:21;100701.92;;;12.45;32.95
44453;BME280;30155;52.164;21.236;2023-03-18T15:50:28;100698.84;;;12.32;33.03
44453;BME280;30155;52.164;21.236;2023-03-18T15:55:28;100705.65;;;12.17;33.62
44453;BME280;30155;52.164;21.236;2023-03-18T16:00:22;100707.21;;;12.02;33.56
44453;BME280;30155;52.164;21.236;2023-03-18T16:05:22;100713.42;;;11.85;33.77
44453;BME280;30155;52.164;21.236;2023-03-18T16:10:18;100719.13;;;11.68;33.96
44453;BME280;30155;52.164;21.236;2023-03-18T16:15:16;100723.60;;;11.52;34.34
44453;BME280;30155;52.164;21.236;2023-03-18T16:20:18;100732.20;;;11.33;35.51
44453;BME280;30155;52.164;21.236;2023-03-18T16:25:12;100735.16;;;11.10;35.78
44453;BME280;30155;52.164;21.236;2023-03-18T16:30:09;100742.78;;;10.87;36.19
44453;BME280;30155;52.164;21.236;2023-03-18T16:35:12;100748.91;;;10.69;36.86
44453;BME280;30155;52.164;21.236;2023-03-18T16:40:24;100745.61;;;10.49;37.24
44453;BME280;30155;52.164;21.236;2023-03-18T16:45:22;100743.97;;;10.27;37.99
44453;BME280;30155;52.164;21.236;2023-03-18T16:50:20;100742.25;;;10.10;38.27
44453;BME280;30155;52.164;21.236;2023-03-18T16:55:16;100737.34;;;9.89;38.70
44453;BME280;30155;52.164;21.236;2023-03-18T17:00:21;100739.64;;;9.74;39.11
44453;BME280;30155;52.164;21.236;2023-03-18T17:05:15;100745.86;;;9.57;39.36
44453;BME280;30155;52.164;21.236;2023-03-18T17:10:10;100756.61;;;9.42;40.17
44453;BME280;30155;52.164;21.236;2023-03-18T17:15:05;100755.14;;;9.31;40.86
44453;BME280;30155;52.164;21.236;2023-03-18T17:20:01;100754.85;;;9.18;41.60
44453;BME280;30155;52.164;21.236;2023-03-18T17:24:56;100759.08;;;9.06;42.11
44453;BME280;30155;52.164;21.236;2023-03-18T17:29:51;100760.48;;;8.93;42.12
44453;BME280;30155;52.164;21.236;2023-03-18T17:34:49;100761.90;;;8.80;42.52
44453;BME280;30155;52.164;21.236;2023-03-18T17:39:42;100759.36;;;8.68;42.92
44453;BME280;30155;52.164;21.236;2023-03-18T17:44:35;100763.90;;;8.57;43.14
44453;BME280;30155;52.164;21.236;2023-03-18T17:49:28;100770.53;;;8.46;43.55
44453;BME280;30155;52.164;21.236;2023-03-18T17:54:25;100772.67;;;8.37;44.21
44453;BME280;30155;52.164;21.236;2023-03-18T17:59:19;100777.66;;;8.30;44.57
44453;BME280;30155;52.164;21.236;2023-03-18T18:04:15;100779.68;;;8.22;44.86
44453;BME280;30155;52.164;21.236;2023-03-18T18:09:09;100781.34;;;8.13;45.19
44453;BME280;30155;52.164;21.236;2023-03-18T18:14:21;100784.90;;;8.04;45.69
44453;BME280;30155;52.164;21.236;2023-03-18T18:19:16;100774.32;;;7.96;45.98
44453;BME280;30155;52.164;21.236;2023-03-18T18:29:15;100770.86;;;7.78;46.38
44453;BME280;30155;52.164;21.236;2023-03-18T18:34:10;100769.71;;;7.69;46.49
44453;BME280;30155;52.164;21.236;2023-03-18T18:39:03;100766.64;;;7.57;46.83
44453;BME280;30155;52.164;21.236;2023-03-18T18:43:57;100761.39;;;7.49;47.05
44453;BME280;30155;52.164;21.236;2023-03-18T18:48:49;100762.20;;;7.42;47.44
44453;BME280;30155;52.164;21.236;2023-03-18T18:53:45;100755.74;;;7.34;47.64
44453;BME280;30155;52.164;21.236;2023-03-18T18:58:38;100758.98;;;7.27;47.60
44453;BME280;30155;52.164;21.236;2023-03-18T19:03:33;100754.63;;;7.20;47.80
44453;BME280;30155;52.164;21.236;2023-03-18T19:08:32;100761.65;;;7.13;48.03
44453;BME280;30155;52.164;21.236;2023-03-18T19:13:28;100761.70;;;7.09;48.34
44453;BME280;30155;52.164;21.236;2023-03-18T19:18:23;100765.86;;;7.04;48.68
44453;BME280;30155;52.164;21.236;2023-03-18T19:23:21;100769.02;;;7.01;48.73
44453;BME280;30155;52.164;21.236;2023-03-18T19:28:21;100768.49;;;7.06;48.32
44453;BME280;30155;52.164;21.236;2023-03-18T19:33:42;100766.54;;;7.10;48.89
44453;BME280;30155;52.164;21.236;2023-03-18T19:38:40;100766.61;;;7.12;48.59
44453;BME280;30155;52.164;21.236;2023-03-18T19:43:33;100768.83;;;7.11;48.64
44453;BME280;30155;52.164;21.236;2023-03-18T19:48:26;100764.55;;;7.12;48.28
44453;BME280;30155;52.164;21.236;2023-03-18T19:53:19;100768.98;;;7.10;48.19
44453;BME280;30155;52.164;21.236;2023-03-18T19:58:22;100769.23;;;7.13;47.83
44453;BME280;30155;52.164;21.236;2023-03-18T20:03:17;100765.36;;;7.16;47.93
44453;BME280;30155;52.164;21.236;2023-03-18T20:08:11;100771.34;;;7.14;47.64
44453;BME280;30155;52.164;21.236;2023-03-18T20:13:04;100767.35;;;7.13;47.46
44453;BME280;30155;52.164;21.236;2023-03-18T20:18:00;100766.40;;;7.10;47.52
44453;BME280;30155;52.164;21.236;2023-03-18T20:27:49;100766.39;;;6.94;47.87
44453;BME280;30155;52.164;21.236;2023-03-18T20:32:46;100764.23;;;6.91;47.91
44453;BME280;30155;52.164;21.236;2023-03-18T20:37:39;100766.30;;;6.80;48.30
44453;BME280;30155;52.164;21.236;2023-03-18T20:42:32;100763.55;;;6.71;48.75
44453;BME280;30155;52.164;21.236;2023-03-18T20:47:25;100756.66;;;6.60;49.02
44453;BME280;30155;52.164;21.236;2023-03-18T20:52:25;100757.58;;;6.51;49.06
44453;BME280;30155;52.164;21.236;2023-03-18T20:57:19;100757.13;;;6.43;49.50
44453;BME280;30155;52.164;21.236;2023-03-18T21:02:32;100754.48;;;6.36;49.58
44453;BME280;30155;52.164;21.236;2023-03-18T21:07:27;100759.21;;;6.29;49.92
44453;BME280;30155;52.164;21.236;2023-03-18T21:12:21;100761.00;;;6.21;50.22
44453;BME280;30155;52.164;21.236;2023-03-18T21:17:17;100757.87;;;6.11;50.68
44453;BME280;30155;52.164;21.236;2023-03-18T21:22:14;100753.86;;;5.99;51.10
44453;BME280;30155;52.164;21.236;2023-03-18T21:27:16;100751.91;;;5.89;51.20
44453;BME280;30155;52.164;21.236;2023-03-18T21:32:22;100752.65;;;5.81;51.15
44453;BME280;30155;52.164;21.236;2023-03-18T21:37:17;100757.77;;;5.70;51.31
44453;BME280;30155;52.164;21.236;2023-03-18T21:47:17;100751.55;;;5.56;51.68
44453;BME280;30155;52.164;21.236;2023-03-18T21:52:17;100752.30;;;5.49;51.98
44453;BME280;30155;52.164;21.236;2023-03-18T21:57:16;100755.06;;;5.44;52.40
44453;BME280;30155;52.164;21.236;2023-03-18T22:02:33;100753.00;;;5.40;52.68
44453;BME280;30155;52.164;21.236;2023-03-18T22:07:28;100752.63;;;5.35;52.85
44453;BME280;30155;52.164;21.236;2023-03-18T22:12:24;100743.06;;;5.31;53.18
44453;BME280;30155;52.164;21.236;2023-03-18T22:17:25;100746.67;;;5.27;53.54
44453;BME280;30155;52.164;21.236;2023-03-18T22:22:24;100744.96;;;5.23;53.69
44453;BME280;30155;52.164;21.236;2023-03-18T22:27:28;100752.17;;;5.19;53.99
44453;BME280;30155;52.164;21.236;2023-03-18T22:37:27;100759.81;;;5.12;54.47
44453;BME280;30155;52.164;21.236;2023-03-18T22:42:22;100758.84;;;5.09;54.61
44453;BME280;30155;52.164;21.236;2023-03-18T22:47:19;100758.38;;;5.06;54.57
44453;BME280;30155;52.164;21.236;2023-03-18T22:52:31;100760.10;;;5.02;54.51
44453;BME280;30155;52.164;21.236;2023-03-18T22:57:25;100759.02;;;4.96;54.46
44453;BME280;30155;52.164;21.236;2023-03-18T23:02:26;100760.66;;;4.90;54.50
44453;BME280;30155;52.164;21.236;2023-03-18T23:07:24;100763.68;;;4.84;54.72
44453;BME280;30155;52.164;21.236;2023-03-18T23:12:18;100760.30;;;4.77;54.76
44453;BME280;30155;52.164;21.236;2023-03-18T23:17:16;100764.46;;;4.70;54.82
44453;BME280;30155;52.164;21.236;2023-03-18T23:22:09;100761.90;;;4.62;54.88
44453;BME280;30155;52.164;21.236;2023-03-18T23:27:03;100758.75;;;4.56;54.87
44453;BME280;30155;52.164;21.236;2023-03-18T23:31:57;100758.55;;;4.51;54.83
44453;BME280;30155;52.164;21.236;2023-03-18T23:36:51;100757.89;;;4.43;55.42
44453;BME280;30155;52.164;21.236;2023-03-18T23:41:44;100755.34;;;4.36;55.40
44453;BME280;30155;52.164;21.236;2023-03-18T23:46:37;100758.29;;;4.33;55.58
44453;BME280;30155;52.164;21.236;2023-03-18T23:51:30;100754.39;;;4.34;55.43
44453;BME280;30155;52.164;21.236;2023-03-18T23:56:23;100758.91;;;4.31;55.23
